SCLD weather

Llanada Grande Airport
Llanada Grande, Los Lagos Region, Chile

Public forecast

Using degrees Celsius for public forecast. Weather courtesy of forecast.io.

METAR (pilot weather report)

Closest report is San Carlos De Bariloche Airport, 55.4 nm (102.5 km) NE. Retrieved 2019/04/24 22:00 UTC (1 hour ago):

SAZS 242200Z 07004KT 9999 BKN035 14/06 Q1019

TAF (pilot weather forecast)

Closest forecast is San Carlos De Bariloche Airport, 55.4 nm (102.5 km) NE. Retrieved 2019/04/24 18:00 UTC (5 hours ago):

TAF SAZS 241700Z 2418/2518 06010KT 9999 BKN030 TX12/2518Z TN08/2510Z PROB30 TEMPO 2423/2503 12005KT 8000 DZ BKN020 BECMG 2505/2508 14010KT 6000 RADZ BKN010 BKN050 BECMG 2514/2517 7000 RA BKN020 OVC050